Time;durP1;ratioP1;P1;durP2;ratioP2;P2;SDS_P1;SDS_P2;PMS_P1;PMS_P2;Temp;Humidity;BMP_temperature;BMP_pressure;BME280_temperature;BME280_humidity;BME280_pressure;Samples;Min_cycle;Max_cycle;Signal;HPM_P1;HPM_P2
2023/10/19 00:00:50;;;;;;;19.33;10.37;;;12.80;1.00;;;;;;5007841;28;20471;-73
2023/10/19 00:03:17;;;;;;;17.40;10.50;;;12.70;1.00;;;;;;5009581;28;20488;-73
2023/10/19 00:05:46;;;;;;;19.80;10.87;;;12.60;1.00;;;;;;5008882;28;20606;-73
2023/10/19 00:10:39;;;;;;;17.40;11.10;;;12.60;1.00;;;;;;5008850;28;20465;-74
2023/10/19 00:13:05;;;;;;;18.40;10.20;;;12.50;1.00;;;;;;5007051;28;20464;-74
2023/10/19 00:15:34;;;;;;;21.20;11.07;;;12.50;1.00;;;;;;5008357;28;20936;-74
2023/10/19 00:18:08;;;;;;;20.93;11.00;;;12.50;1.00;;;;;;5008326;28;20441;-74
2023/10/19 00:20:52;;;;;;;23.30;12.07;;;12.50;1.00;;;;;;5004109;28;20455;-74
2023/10/19 00:23:28;;;;;;;18.10;10.87;;;12.50;1.00;;;;;;5021938;28;20831;-73
2023/10/19 00:25:55;;;;;;;18.50;11.30;;;12.40;1.00;;;;;;5021888;28;20519;-74
2023/10/19 00:28:22;;;;;;;20.90;11.20;;;12.40;1.00;;;;;;5009334;28;20515;-74
2023/10/19 00:30:49;;;;;;;24.70;11.63;;;12.40;1.00;;;;;;5023074;28;20511;-72
2023/10/19 00:33:18;;;;;;;20.97;11.30;;;12.40;1.00;;;;;;5006288;28;20630;-73
2023/10/19 00:35:47;;;;;;;22.57;10.97;;;12.40;1.00;;;;;;5009031;28;20508;-73
2023/10/19 00:41:06;;;;;;;21.63;11.00;;;12.40;1.00;;;;;;5008417;28;20585;-72
2023/10/19 00:43:36;;;;;;;17.43;10.20;;;12.40;1.00;;;;;;5001016;28;20545;-73
2023/10/19 00:46:09;;;;;;;14.57;9.80;;;12.50;1.00;;;;;;5007112;28;20476;-73
2023/10/19 00:48:36;;;;;;;20.90;10.27;;;12.50;1.00;;;;;;5008206;28;20468;-73
2023/10/19 00:53:48;;;;;;;16.50;10.00;;;12.50;1.00;;;;;;5007483;28;20884;-73
2023/10/19 00:56:17;;;;;;;18.17;10.53;;;12.50;1.00;;;;;;5008451;28;20428;-74
2023/10/19 00:58:47;;;;;;;20.10;10.80;;;12.50;1.00;;;;;;5008227;28;20461;-74
2023/10/19 01:01:14;;;;;;;17.97;10.47;;;12.50;1.00;;;;;;5007875;28;21205;-73
2023/10/19 01:03:39;;;;;;;15.70;8.90;;;12.50;1.00;;;;;;5007747;28;20870;-74
2023/10/19 01:06:09;;;;;;;13.73;8.97;;;12.60;1.00;;;;;;5006725;28;20459;-73
2023/10/19 01:08:41;;;;;;;16.97;9.70;;;12.60;1.00;;;;;;5008094;28;20232;-74
2023/10/19 01:11:11;;;;;;;15.00;9.23;;;12.60;1.00;;;;;;5022792;28;20553;-73
2023/10/19 01:13:37;;;;;;;16.67;9.90;;;12.60;1.00;;;;;;5006828;28;20453;-74
2023/10/19 01:16:04;;;;;;;17.97;9.70;;;12.60;1.00;;;;;;5007482;28;20433;-72
2023/10/19 01:18:33;;;;;;;17.27;9.53;;;12.60;1.00;;;;;;4998998;28;20521;-74
2023/10/19 01:21:02;;;;;;;15.93;10.30;;;12.60;1.00;;;;;;5008482;28;20951;-74
2023/10/19 01:23:28;;;;;;;18.80;9.73;;;12.60;1.00;;;;;;5006451;28;21133;-74
2023/10/19 01:31:14;;;;;;;13.53;8.87;;;12.60;1.00;;;;;;5006744;28;20465;-73
2023/10/19 01:33:41;;;;;;;15.77;10.20;;;12.70;1.00;;;;;;5005254;28;20474;-73
2023/10/19 01:36:11;;;;;;;15.47;8.77;;;12.70;1.00;;;;;;5006665;28;20437;-72
2023/10/19 01:38:37;;;;;;;19.50;9.07;;;12.60;1.00;;;;;;5005777;28;20440;-74
2023/10/19 01:41:13;;;;;;;19.20;8.80;;;12.70;1.00;;;;;;5003551;28;20433;-74
2023/10/19 01:43:48;;;;;;;17.80;9.20;;;12.70;1.00;;;;;;5005903;28;20495;-73
2023/10/19 01:46:21;;;;;;;19.27;8.77;;;12.70;1.00;;;;;;5004589;28;20813;-72
2023/10/19 01:48:55;;;;;;;15.47;8.50;;;12.70;1.00;;;;;;5006973;28;20441;-73
2023/10/19 01:51:22;;;;;;;12.93;8.10;;;12.70;1.00;;;;;;5022202;28;20485;-72
2023/10/19 01:53:48;;;;;;;16.10;8.10;;;12.70;1.00;;;;;;5006716;28;20461;-72
2023/10/19 01:56:19;;;;;;;14.07;8.33;;;12.70;1.00;;;;;;5007081;28;20450;-72
2023/10/19 01:58:48;;;;;;;16.10;8.90;;;12.70;1.00;;;;;;5005501;28;20182;-72
2023/10/19 02:01:20;;;;;;;10.90;7.87;;;12.70;1.00;;;;;;5005640;28;20484;-72
2023/10/19 02:03:47;;;;;;;14.20;8.50;;;12.70;1.00;;;;;;5007115;28;20515;-72
2023/10/19 02:06:20;;;;;;;16.57;8.57;;;12.70;1.00;;;;;;5006796;28;20917;-72
2023/10/19 02:08:53;;;;;;;17.17;8.60;;;12.70;1.00;;;;;;5006574;28;20464;-71
2023/10/19 02:11:22;;;;;;;15.07;9.30;;;13.10;1.00;;;;;;5007709;28;20461;-72
2023/10/19 02:13:50;;;;;;;16.97;9.90;;;12.70;1.00;;;;;;5003823;28;20599;-71
2023/10/19 02:16:18;;;;;;;15.23;9.70;;;12.70;1.00;;;;;;5021878;28;20495;-73
2023/10/19 02:18:44;;;;;;;18.20;10.10;;;12.60;1.00;;;;;;5006353;28;20480;-72
2023/10/19 02:21:11;;;;;;;14.87;9.13;;;12.70;1.00;;;;;;5004629;28;20509;-71
2023/10/19 02:23:39;;;;;;;15.23;9.40;;;12.70;1.00;;;;;;5004850;28;20605;-72
2023/10/19 02:26:05;;;;;;;15.97;9.33;;;12.80;1.00;;;;;;5006413;28;20444;-73
2023/10/19 02:28:31;;;;;;;13.70;8.30;;;12.80;1.00;;;;;;5005639;28;20484;-73
2023/10/19 02:31:10;;;;;;;15.67;9.17;;;12.80;1.00;;;;;;5006095;28;20267;-73
2023/10/19 02:33:38;;;;;;;19.53;9.10;;;12.80;1.00;;;;;;5004291;28;20473;-72
2023/10/19 02:36:04;;;;;;;18.93;9.03;;;12.80;1.00;;;;;;5004556;28;20545;-73
2023/10/19 02:38:29;;;;;;;16.10;9.33;;;12.80;1.00;;;;;;5004961;28;20873;-73
2023/10/19 02:40:55;;;;;;;18.90;10.17;;;12.80;1.00;;;;;;5006110;28;20182;-73
2023/10/19 02:43:23;;;;;;;17.00;9.53;;;12.80;1.00;;;;;;5005535;28;20218;-73
2023/10/19 02:45:49;;;;;;;15.13;9.90;;;12.70;1.00;;;;;;5007772;28;20187;-74
2023/10/19 02:48:15;;;;;;;20.33;10.10;;;12.70;1.00;;;;;;5005203;28;20997;-72
2023/10/19 02:50:41;;;;;;;19.13;11.80;;;12.70;1.00;;;;;;5004850;28;20755;-73
2023/10/19 02:53:07;;;;;;;19.17;10.67;;;12.70;1.00;;;;;;5004241;28;20217;-73
2023/10/19 02:55:32;;;;;;;18.33;10.70;;;12.60;1.00;;;;;;5004889;28;20437;-73
2023/10/19 02:57:58;;;;;;;16.47;9.77;;;12.70;1.00;;;;;;5002373;28;20226;-73
2023/10/19 03:00:32;;;;;;;15.83;9.90;;;12.70;1.00;;;;;;5004209;28;20192;-74
2023/10/19 03:02:59;;;;;;;17.30;11.10;;;12.70;1.00;;;;;;5006787;28;20525;-73
2023/10/19 03:05:26;;;;;;;20.20;10.57;;;12.70;1.00;;;;;;5024548;28;20534;-72
2023/10/19 03:07:52;;;;;;;25.50;10.20;;;12.80;1.00;;;;;;5007253;28;20436;-73
2023/10/19 03:10:34;;;;;;;19.83;9.73;;;12.80;1.00;;;;;;5010486;28;20437;-73
2023/10/19 03:13:00;;;;;;;17.57;10.00;;;12.80;1.00;;;;;;5004988;28;20575;-72
2023/10/19 03:15:27;;;;;;;22.23;10.80;;;12.90;1.00;;;;;;5007766;28;20449;-73
2023/10/19 03:17:52;;;;;;;16.73;9.97;;;12.90;1.00;;;;;;5008360;28;20678;-74
2023/10/19 03:20:23;;;;;;;18.03;9.90;;;12.90;1.00;;;;;;5007119;28;20444;-73
2023/10/19 03:22:48;;;;;;;25.30;10.40;;;12.90;1.00;;;;;;5009489;28;20222;-74
2023/10/19 03:25:44;;;;;;;21.13;11.37;;;13.20;1.00;;;;;;5008202;28;20464;-74
2023/10/19 03:28:10;;;;;;;19.73;10.00;;;12.90;1.00;;;;;;5008754;28;20742;-74
2023/10/19 03:30:39;;;;;;;19.47;11.90;;;12.90;1.00;;;;;;5009472;28;21048;-74
2023/10/19 03:33:09;;;;;;;17.30;10.90;;;12.90;1.00;;;;;;4995912;28;20512;-74
2023/10/19 03:35:38;;;;;;;18.80;10.07;;;13.00;1.00;;;;;;5007130;28;20445;-74
2023/10/19 03:38:14;;;;;;;20.40;10.60;;;13.00;1.00;;;;;;5009258;28;21011;-74
2023/10/19 03:40:39;;;;;;;25.50;12.13;;;13.00;1.00;;;;;;5009290;28;20804;-74
2023/10/19 03:43:16;;;;;;;21.43;11.80;;;13.00;1.00;;;;;;5009744;28;20535;-74
2023/10/19 03:45:47;;;;;;;21.07;11.13;;;13.00;1.00;;;;;;5009115;28;20599;-75
2023/10/19 03:48:13;;;;;;;20.30;10.23;;;13.00;1.00;;;;;;5009672;28;20464;-74
2023/10/19 03:50:38;;;;;;;23.00;10.87;;;13.00;1.00;;;;;;5009277;28;20460;-75
2023/10/19 03:53:07;;;;;;;24.20;11.20;;;13.00;1.00;;;;;;5010172;28;20465;-75
2023/10/19 03:55:38;;;;;;;22.63;10.13;;;13.00;1.00;;;;;;5006352;28;20305;-75
2023/10/19 03:58:04;;;;;;;18.40;10.27;;;13.10;1.00;;;;;;5011374;28;20781;-74
2023/10/19 04:00:33;;;;;;;23.40;10.10;;;13.10;1.00;;;;;;5006834;28;20437;-74
2023/10/19 04:02:59;;;;;;;26.00;11.03;;;13.00;1.00;;;;;;5023832;28;20449;-75
2023/10/19 04:05:26;;;;;;;22.20;11.50;;;13.00;1.00;;;;;;5007655;28;20433;-74
2023/10/19 04:07:55;;;;;;;21.40;11.63;;;13.00;1.00;;;;;;5008259;28;20439;-74
2023/10/19 04:10:30;;;;;;;22.00;10.70;;;13.00;1.00;;;;;;5008919;28;20434;-73
2023/10/19 04:12:59;;;;;;;19.00;10.00;;;13.00;1.00;;;;;;5004113;28;20471;-74
2023/10/19 04:15:26;;;;;;;18.20;10.87;;;13.10;1.00;;;;;;5007782;28;20507;-74
2023/10/19 04:17:54;;;;;;;16.83;9.67;;;13.10;1.00;;;;;;5007609;28;20441;-75
2023/10/19 04:22:47;;;;;;;16.00;10.00;;;13.10;1.00;;;;;;5007866;28;20997;-75
2023/10/19 04:25:15;;;;;;;14.90;8.83;;;13.20;1.00;;;;;;5007622;28;20233;-74
2023/10/19 04:27:42;;;;;;;18.90;8.83;;;13.30;1.00;;;;;;5009454;28;20449;-73
2023/10/19 04:30:26;;;;;;;16.00;8.70;;;13.30;1.00;;;;;;5009221;28;20440;-74
2023/10/19 04:32:52;;;;;;;17.00;9.63;;;13.30;1.00;;;;;;5005256;28;20453;-74
2023/10/19 04:35:22;;;;;;;15.27;8.20;;;13.40;1.00;;;;;;5008828;28;20430;-73
2023/10/19 04:37:52;;;;;;;17.83;9.00;;;13.40;1.00;;;;;;5008118;28;20520;-74
2023/10/19 04:40:18;;;;;;;19.80;9.30;;;13.40;1.00;;;;;;5007655;28;20993;-74
2023/10/19 04:42:45;;;;;;;19.10;8.70;;;14.30;1.00;;;;;;5006884;28;20476;-73
2023/10/19 04:45:11;;;;;;;14.93;8.97;;;13.40;1.00;;;;;;5007930;28;20939;-74
2023/10/19 04:47:37;;;;;;;15.00;7.87;;;13.40;1.00;;;;;;5009021;28;20433;-74
2023/10/19 04:50:04;;;;;;;19.07;9.10;;;13.30;1.00;;;;;;5007053;28;21012;-73
2023/10/19 04:52:29;;;;;;;25.07;8.80;;;13.30;1.00;;;;;;5008456;28;20206;-73
2023/10/19 04:54:55;;;;;;;16.57;8.27;;;13.20;1.00;;;;;;5006056;28;20816;-75
2023/10/19 04:57:21;;;;;;;18.10;8.63;;;13.30;1.00;;;;;;5009342;28;20206;-75
2023/10/19 04:59:47;;;;;;;13.40;8.03;;;11.80;1.00;;;;;;5008591;28;20660;-74
2023/10/19 05:02:13;;;;;;;15.60;8.20;;;13.40;1.00;;;;;;5006402;28;20214;-74
2023/10/19 05:04:38;;;;;;;19.80;9.33;;;13.40;1.00;;;;;;5008201;28;20441;-74
2023/10/19 05:07:04;;;;;;;14.43;8.57;;;13.40;1.00;;;;;;5005833;28;20451;-74
2023/10/19 05:09:32;;;;;;;11.57;8.00;;;13.40;1.00;;;;;;5006700;28;20186;-74
2023/10/19 05:11:58;;;;;;;16.30;8.83;;;13.40;1.00;;;;;;5005367;28;20214;-74
2023/10/19 05:14:24;;;;;;;15.97;7.90;;;13.40;1.00;;;;;;5000183;28;20532;-73
2023/10/19 05:16:49;;;;;;;13.80;7.73;;;13.40;1.00;;;;;;5007349;28;20182;-74
2023/10/19 05:19:15;;;;;;;15.63;8.30;;;13.40;1.00;;;;;;5007825;28;20455;-74
2023/10/19 05:21:41;;;;;;;17.30;8.37;;;13.40;1.00;;;;;;5004530;28;20295;-73
2023/10/19 05:24:07;;;;;;;15.30;8.63;;;13.40;1.00;;;;;;5007436;28;20190;-74
2023/10/19 05:26:35;;;;;;;18.13;8.97;;;13.50;1.00;;;;;;5007691;28;20187;-75
2023/10/19 05:29:01;;;;;;;15.63;9.30;;;13.60;1.00;;;;;;5007225;28;20934;-74
2023/10/19 05:31:28;;;;;;;17.30;9.30;;;13.50;1.00;;;;;;5010404;28;20502;-73
2023/10/19 05:33:53;;;;;;;14.13;8.63;;;13.50;1.00;;;;;;5005800;28;20198;-74
2023/10/19 05:36:19;;;;;;;13.77;8.67;;;13.40;1.00;;;;;;5010303;28;20432;-73
2023/10/19 05:38:45;;;;;;;19.37;8.63;;;13.40;1.00;;;;;;5009795;28;20186;-73
2023/10/19 05:41:11;;;;;;;14.50;8.47;;;13.40;1.00;;;;;;5008919;28;20198;-73
2023/10/19 05:43:38;;;;;;;15.80;8.97;;;13.40;1.00;;;;;;5008361;28;20214;-74
2023/10/19 05:46:04;;;;;;;14.80;8.57;;;13.40;1.00;;;;;;5008812;28;20194;-74
2023/10/19 05:48:31;;;;;;;13.23;8.23;;;13.40;1.00;;;;;;5009662;28;20448;-72
2023/10/19 05:50:56;;;;;;;14.63;7.90;;;13.30;1.00;;;;;;5009509;28;20225;-74
2023/10/19 05:53:22;;;;;;;14.77;8.57;;;13.30;1.00;;;;;;5008404;28;20496;-73
2023/10/19 05:55:49;;;;;;;15.20;8.77;;;13.30;1.00;;;;;;5008182;28;20186;-73
2023/10/19 05:58:15;;;;;;;18.53;9.40;;;13.30;1.00;;;;;;5009886;28;20194;-73
2023/10/19 06:00:41;;;;;;;15.90;9.00;;;13.30;1.00;;;;;;5009000;28;20425;-73
2023/10/19 06:03:07;;;;;;;14.90;8.70;;;13.30;1.00;;;;;;5009778;28;20206;-73
2023/10/19 06:05:33;;;;;;;12.50;7.73;;;13.30;1.00;;;;;;5009400;28;20962;-73
2023/10/19 06:07:59;;;;;;;12.77;7.73;;;13.30;1.00;;;;;;5009641;28;20189;-73
2023/10/19 06:10:27;;;;;;;12.87;8.00;;;13.30;1.00;;;;;;5009201;28;20432;-73
2023/10/19 06:12:52;;;;;;;14.40;8.53;;;13.30;1.00;;;;;;5009029;28;20453;-73
2023/10/19 06:15:20;;;;;;;14.20;8.10;;;13.30;1.00;;;;;;5007175;28;20470;-73
2023/10/19 06:17:47;;;;;;;14.70;8.13;;;13.30;1.00;;;;;;5003122;28;20202;-73
2023/10/19 06:20:19;;;;;;;15.32;9.30;;;13.40;1.00;;;;;;5006020;28;20470;-72
2023/10/19 06:22:50;;;;;;;21.57;9.47;;;13.40;1.00;;;;;;5006064;28;20198;-71
2023/10/19 06:25:21;;;;;;;13.87;8.00;;;13.40;1.00;;;;;;5006614;28;20519;-71
2023/10/19 06:27:47;;;;;;;13.07;8.57;;;13.50;1.00;;;;;;5019930;28;20441;-71
2023/10/19 06:30:17;;;;;;;15.67;8.77;;;13.50;1.00;;;;;;5001191;28;20528;-72
2023/10/19 06:32:48;;;;;;;14.07;9.47;;;13.50;1.00;;;;;;5005939;28;20489;-71
2023/10/19 06:35:13;;;;;;;14.23;7.80;;;13.50;1.00;;;;;;5007120;28;20442;-71
2023/10/19 06:37:40;;;;;;;15.20;8.63;;;13.60;1.00;;;;;;5003378;28;20444;-71
2023/10/19 06:40:06;;;;;;;15.03;8.03;;;13.60;1.00;;;;;;5002947;28;20495;-71
2023/10/19 06:42:32;;;;;;;17.03;9.20;;;13.60;1.00;;;;;;5006025;28;20512;-71
2023/10/19 06:44:57;;;;;;;17.47;9.00;;;13.60;1.00;;;;;;5005771;28;20520;-71
2023/10/19 06:47:23;;;;;;;14.00;9.00;;;13.70;1.00;;;;;;5002723;28;20187;-73
2023/10/19 06:49:50;;;;;;;16.70;8.97;;;13.60;1.00;;;;;;5006863;28;20179;-75
2023/10/19 06:52:15;;;;;;;13.87;8.70;;;13.80;1.00;;;;;;5017424;28;20214;-73
2023/10/19 06:54:41;;;;;;;19.10;9.27;;;13.80;1.00;;;;;;5004372;28;20858;-74
2023/10/19 06:57:08;;;;;;;15.27;8.90;;;13.90;1.00;;;;;;5006665;28;20224;-73
2023/10/19 06:59:35;;;;;;;13.90;8.60;;;14.00;1.00;;;;;;5021189;28;20179;-70
2023/10/19 07:02:01;;;;;;;21.10;8.40;;;14.00;1.00;;;;;;5003536;28;20563;-71
2023/10/19 07:04:28;;;;;;;14.07;8.63;;;14.10;1.00;;;;;;5004391;28;20843;-72
2023/10/19 07:06:53;;;;;;;18.43;9.30;;;14.20;1.00;;;;;;5003694;28;20672;-73
2023/10/19 07:09:19;;;;;;;14.60;8.93;;;14.20;1.00;;;;;;5003170;28;20442;-73
2023/10/19 07:11:45;;;;;;;15.70;8.77;;;14.30;1.00;;;;;;5002982;28;20546;-71
2023/10/19 07:14:12;;;;;;;14.90;9.03;;;14.30;1.00;;;;;;5000994;28;20656;-72
2023/10/19 07:16:40;;;;;;;14.10;8.17;;;14.40;1.00;;;;;;5001598;28;20645;-71
2023/10/19 07:19:05;;;;;;;14.83;8.20;;;14.60;1.00;;;;;;5007611;28;20444;-72
2023/10/19 07:21:35;;;;;;;12.90;8.50;;;;;;;;;;5006255;28;20437;-71
2023/10/19 07:24:05;;;;;;;13.10;8.20;;;14.70;1.00;;;;;;5006339;28;20225;-73
2023/10/19 07:26:41;;;;;;;14.07;8.67;;;14.80;1.00;;;;;;5006155;28;20437;-71
2023/10/19 07:29:10;;;;;;;12.60;7.73;;;14.90;1.00;;;;;;5016709;28;20959;-73
2023/10/19 07:31:35;;;;;;;17.43;8.83;;;15.00;1.00;;;;;;5006355;28;20477;-72
2023/10/19 07:34:01;;;;;;;11.13;8.20;;;14.90;1.00;;;;;;5005332;28;20437;-72
2023/10/19 07:36:28;;;;;;;14.93;8.50;;;15.00;1.00;;;;;;5001969;28;20194;-71
2023/10/19 07:38:55;;;;;;;15.33;8.83;;;15.00;1.00;;;;;;5004948;28;20179;-73
2023/10/19 07:41:20;;;;;;;15.30;8.57;;;14.90;1.00;;;;;;5004928;28;20451;-71
2023/10/19 07:43:46;;;;;;;15.50;9.10;;;15.00;1.00;;;;;;5016937;28;20484;-71
2023/10/19 07:46:13;;;;;;;18.53;8.10;;;15.00;1.00;;;;;;5007010;28;20183;-72
2023/10/19 07:48:38;;;;;;;13.10;8.20;;;15.00;1.00;;;;;;5001963;28;20186;-72
2023/10/19 07:51:04;;;;;;;10.50;7.60;;;15.40;1.00;;;;;;5005736;28;20461;-72
2023/10/19 07:53:30;;;;;;;13.27;7.67;;;15.10;1.00;;;;;;5005916;28;20204;-73
2023/10/19 07:55:57;;;;;;;12.57;7.53;;;15.20;1.00;;;;;;5004340;28;20194;-71
2023/10/19 07:58:22;;;;;;;13.43;8.17;;;15.20;1.00;;;;;;5009955;28;20206;-72
2023/10/19 08:00:48;;;;;;;13.20;7.70;;;15.30;1.00;;;;;;5023366;28;20543;-71
2023/10/19 08:03:15;;;;;;;10.77;7.00;;;15.50;1.00;;;;;;5008385;28;20273;-72
2023/10/19 08:05:41;;;;;;;16.37;7.53;;;15.50;1.00;;;;;;5008897;28;20225;-72
2023/10/19 08:08:07;;;;;;;12.97;7.40;;;15.60;1.00;;;;;;5007276;28;20433;-73
2023/10/19 08:10:34;;;;;;;13.03;7.83;;;15.80;1.00;;;;;;5009432;28;20182;-73
2023/10/19 08:13:01;;;;;;;17.93;7.40;;;15.80;1.00;;;;;;5006821;28;20334;-72
2023/10/19 08:15:28;;;;;;;12.23;7.43;;;15.90;1.00;;;;;;5005418;28;20883;-71
2023/10/19 08:17:54;;;;;;;11.47;7.63;;;;;;;;;;5005216;28;20468;-73
2023/10/19 08:20:23;;;;;;;14.27;7.70;;;16.30;1.00;;;;;;5022827;28;20537;-73
2023/10/19 08:22:53;;;;;;;17.70;7.10;;;16.30;1.00;;;;;;5004205;28;20926;-73
2023/10/19 08:25:20;;;;;;;13.80;6.70;;;16.30;1.00;;;;;;5007374;28;20473;-72
2023/10/19 08:27:48;;;;;;;13.10;7.70;;;16.50;1.00;;;;;;5009959;28;20954;-72
2023/10/19 08:30:15;;;;;;;14.67;7.50;;;16.80;1.00;;;;;;5006182;28;20533;-73
2023/10/19 08:32:41;;;;;;;13.30;8.20;;;17.10;1.00;;;;;;5022837;28;20530;-72
2023/10/19 08:35:08;;;;;;;14.97;7.70;;;17.30;1.00;;;;;;5017062;28;20464;-72
2023/10/19 08:37:34;;;;;;;18.00;8.93;;;17.50;1.00;;;;;;5002458;28;20425;-71
2023/10/19 08:40:00;;;;;;;13.17;8.10;;;17.90;1.00;;;;;;5006475;28;20451;-72
2023/10/19 08:42:25;;;;;;;15.60;7.80;;;18.70;1.00;;;;;;5005870;28;20466;-72
2023/10/19 08:44:51;;;;;;;14.00;7.90;;;19.90;1.00;;;;;;5004788;28;20492;-71
2023/10/19 08:47:17;;;;;;;12.40;7.47;;;20.60;1.00;;;;;;5007443;28;20178;-72
2023/10/19 08:49:43;;;;;;;12.90;7.40;;;21.00;1.00;;;;;;5010563;28;20192;-72
2023/10/19 08:52:09;;;;;;;15.17;7.27;;;20.70;1.00;;;;;;5004226;28;20214;-72
2023/10/19 08:54:35;;;;;;;12.13;7.80;;;20.50;1.00;;;;;;5006641;28;20511;-71
2023/10/19 08:57:00;;;;;;;11.13;7.20;;;20.10;1.00;;;;;;5004987;28;20483;-71
2023/10/19 08:59:26;;;;;;;11.97;7.10;;;20.30;1.00;;;;;;5006602;28;20437;-72
2023/10/19 09:02:02;;;;;;;11.13;7.30;;;20.30;1.00;;;;;;5006834;28;20632;-71
2023/10/19 09:04:29;;;;;;;10.70;6.70;;;20.80;1.00;;;;;;5006385;28;20893;-71
2023/10/19 09:06:55;;;;;;;11.70;7.00;;;20.90;1.00;;;;;;5005721;28;20498;-71
2023/10/19 09:09:21;;;;;;;14.00;7.33;;;20.70;1.00;;;;;;5006581;28;20445;-71
2023/10/19 09:11:48;;;;;;;12.50;7.70;;;20.50;1.00;;;;;;5006729;28;20205;-71
2023/10/19 09:14:14;;;;;;;10.60;7.30;;;20.50;1.00;;;;;;5005214;28;20549;-72
2023/10/19 09:17:06;;;;;;;12.83;7.37;;;21.20;1.00;;;;;;5007490;28;20440;-71
2023/10/19 09:19:38;;;;;;;11.60;6.97;;;22.10;1.00;;;;;;5014193;28;20850;-71
2023/10/19 09:22:08;;;;;;;12.60;6.67;;;22.00;1.00;;;;;;5005343;28;20487;-72
2023/10/19 09:24:37;;;;;;;11.97;6.90;;;22.60;1.00;;;;;;5002589;28;20437;-73
2023/10/19 09:27:03;;;;;;;9.97;7.03;;;23.00;1.00;;;;;;5007027;28;20517;-73
2023/10/19 09:29:31;;;;;;;11.60;6.97;;;23.20;1.00;;;;;;5022709;28;20472;-72
2023/10/19 09:32:02;;;;;;;10.53;6.37;;;23.30;1.00;;;;;;5005356;28;20500;-71
2023/10/19 09:34:31;;;;;;;12.63;6.93;;;23.80;1.00;;;;;;5005825;28;20445;-73
2023/10/19 09:37:01;;;;;;;11.93;7.43;;;24.20;1.00;;;;;;5001303;28;20433;-73
2023/10/19 09:39:34;;;;;;;10.97;6.60;;;25.30;1.00;;;;;;5021721;28;20439;-71
2023/10/19 09:42:10;;;;;;;9.67;6.70;;;26.70;1.00;;;;;;5007587;28;20787;-73
2023/10/19 09:44:43;;;;;;;10.00;5.67;;;28.10;1.00;;;;;;5022697;28;20221;-72
2023/10/19 09:47:30;;;;;;;12.30;6.20;;;28.60;1.00;;;;;;5005311;28;20201;-72
2023/10/19 09:49:57;;;;;;;9.35;6.00;;;28.50;1.00;;;;;;5022128;28;20660;-72
2023/10/19 09:52:24;;;;;;;7.88;5.20;;;28.90;1.00;;;;;;5007186;28;20673;-72
2023/10/19 09:54:56;;;;;;;8.07;4.40;;;29.60;1.00;;;;;;5006536;28;20180;-72
2023/10/19 09:57:30;;;;;;;5.65;4.00;;;30.80;1.00;;;;;;5001826;28;20216;-73
2023/10/19 10:00:08;;;;;;;5.50;4.00;;;31.20;1.00;;;;;;5005290;28;20229;-72
2023/10/19 10:02:34;;;;;;;6.47;4.22;;;31.90;1.00;;;;;;5002958;28;20550;-73
2023/10/19 10:05:00;;;;;;;6.30;3.50;;;31.60;1.00;;;;;;5004418;28;20217;-73
2023/10/19 10:07:26;;;;;;;5.05;3.40;;;31.00;1.00;;;;;;5002151;28;20190;-72
2023/10/19 10:09:52;;;;;;;5.57;3.65;;;30.20;1.00;;;;;;5008166;28;20253;-73
2023/10/19 10:12:23;;;;;;;6.03;3.55;;;29.40;1.00;;;;;;5005478;28;20692;-73
2023/10/19 10:15:10;;;;;;;6.70;3.70;;;29.20;1.00;;;;;;5007061;28;20290;-73
2023/10/19 10:17:37;;;;;;;6.95;3.70;;;28.50;1.00;;;;;;5003749;28;20225;-73
2023/10/19 10:20:13;;;;;;;5.60;3.50;;;28.10;1.00;;;;;;5003448;28;20273;-72
2023/10/19 10:22:39;;;;;;;6.38;3.47;;;28.10;1.00;;;;;;4998531;28;20712;-72
2023/10/19 10:25:05;;;;;;;6.27;3.30;;;28.20;1.00;;;;;;5004440;28;20194;-75
2023/10/19 10:27:30;;;;;;;6.10;3.67;;;28.60;1.00;;;;;;5007786;28;20181;-73
2023/10/19 10:29:58;;;;;;;7.50;3.30;;;28.50;1.00;;;;;;5006063;28;20185;-71
2023/10/19 10:32:50;;;;;;;6.03;3.13;;;28.30;1.00;;;;;;5006142;28;20734;-72
2023/10/19 10:35:40;;;;;;;5.93;2.87;;;28.20;1.00;;;;;;5004444;28;20538;-73
2023/10/19 10:38:11;;;;;;;7.67;3.53;;;28.20;1.00;;;;;;4995268;28;20182;-71
2023/10/19 10:40:43;;;;;;;4.97;3.10;;;27.60;1.00;;;;;;5003317;28;20182;-73
2023/10/19 10:43:10;;;;;;;7.07;3.60;;;26.80;1.00;;;;;;5003907;28;20205;-73
2023/10/19 10:45:36;;;;;;;8.70;3.30;;;26.70;1.00;;;;;;5004860;28;20652;-73
2023/10/19 10:48:02;;;;;;;5.67;2.97;;;26.40;1.00;;;;;;5000441;28;20194;-72
2023/10/19 10:50:28;;;;;;;6.60;3.50;;;25.40;1.00;;;;;;5002753;28;20209;-72
2023/10/19 10:52:57;;;;;;;6.13;3.90;;;24.10;1.00;;;;;;5008404;28;20463;-72
2023/10/19 10:55:25;;;;;;;6.20;4.00;;;23.60;1.00;;;;;;5006880;28;20456;-72
2023/10/19 10:57:51;;;;;;;7.97;4.27;;;22.70;1.00;;;;;;5005577;28;20469;-72
2023/10/19 11:00:18;;;;;;;7.10;4.20;;;22.20;1.00;;;;;;5004099;28;20441;-72
2023/10/19 11:02:45;;;;;;;6.07;3.60;;;21.60;1.00;;;;;;5005602;28;20202;-72
2023/10/19 11:05:16;;;;;;;7.10;4.40;;;21.30;1.00;;;;;;5020645;28;20437;-72
2023/10/19 11:08:02;;;;;;;6.90;4.40;;;21.00;1.00;;;;;;5005940;28;20820;-73
2023/10/19 11:10:29;;;;;;;11.60;4.40;;;20.80;1.00;;;;;;5002438;28;20443;-71
2023/10/19 11:13:03;;;;;;;6.27;4.37;;;20.60;1.00;;;;;;5004950;28;20488;-71
2023/10/19 11:15:29;;;;;;;8.73;4.90;;;20.60;1.00;;;;;;5003946;28;20465;-72
2023/10/19 11:17:55;;;;;;;9.53;5.13;;;20.40;1.00;;;;;;5006823;28;20437;-72
2023/10/19 11:20:23;;;;;;;8.53;4.20;;;20.20;1.00;;;;;;5005153;28;20544;-70
2023/10/19 11:22:50;;;;;;;8.70;5.13;;;20.20;1.00;;;;;;5008619;28;20460;-72
2023/10/19 11:25:24;;;;;;;11.77;5.87;;;20.00;1.00;;;;;;5007057;28;20548;-71
2023/10/19 11:27:50;;;;;;;8.17;5.23;;;19.80;1.00;;;;;;5009524;28;20449;-71
2023/10/19 11:30:31;;;;;;;9.20;5.37;;;19.60;1.00;;;;;;5007902;28;20449;-71
2023/10/19 11:32:57;;;;;;;9.47;5.73;;;19.40;1.00;;;;;;5008509;28;20202;-71
2023/10/19 11:35:27;;;;;;;7.50;5.50;;;19.40;1.00;;;;;;5007498;28;20495;-69
2023/10/19 11:37:54;;;;;;;7.87;5.87;;;19.30;1.00;;;;;;5005023;28;20459;-71
2023/10/19 11:40:21;;;;;;;8.93;5.00;;;19.30;1.00;;;;;;5010182;28;20472;-71
2023/10/19 11:42:47;;;;;;;15.47;6.10;;;19.30;1.00;;;;;;5008993;28;21146;-70
2023/10/19 11:45:13;;;;;;;9.30;6.00;;;19.30;1.00;;;;;;5009409;28;20445;-71
2023/10/19 11:47:39;;;;;;;11.40;6.03;;;19.10;1.00;;;;;;5007392;28;20887;-72
2023/10/19 11:50:05;;;;;;;10.10;6.03;;;19.10;1.00;;;;;;5003166;28;20186;-71
2023/10/19 11:52:31;;;;;;;10.30;6.20;;;19.00;1.00;;;;;;5009195;28;20445;-71
2023/10/19 11:54:56;;;;;;;11.80;6.13;;;18.90;1.00;;;;;;5022049;28;20433;-71
2023/10/19 11:57:24;;;;;;;19.90;9.60;;;18.90;1.00;;;;;;5006256;28;20456;-71
2023/10/19 11:59:52;;;;;;;17.80;8.40;;;18.80;1.00;;;;;;5009413;28;20202;-71
2023/10/19 12:02:21;;;;;;;13.43;6.97;;;18.80;1.00;;;;;;5003004;28;20461;-72
2023/10/19 12:04:47;;;;;;;13.03;8.03;;;18.80;1.00;;;;;;5006196;28;20437;-70
2023/10/19 12:07:12;;;;;;;11.90;7.10;;;18.80;1.00;;;;;;5004288;28;20437;-71
2023/10/19 12:09:41;;;;;;;10.90;7.20;;;18.80;1.00;;;;;;5004473;28;20847;-70
2023/10/19 12:12:07;;;;;;;16.73;7.90;;;18.60;1.00;;;;;;5006981;28;20297;-70
2023/10/19 12:14:34;;;;;;;15.27;7.90;;;18.60;1.00;;;;;;5024822;28;20524;-71
2023/10/19 12:17:01;;;;;;;11.83;7.30;;;18.50;1.00;;;;;;5020885;28;21019;-72
2023/10/19 12:19:29;;;;;;;16.13;7.77;;;18.40;1.00;;;;;;5009195;28;20461;-72
2023/10/19 12:21:55;;;;;;;15.90;7.90;;;18.40;1.00;;;;;;5023226;28;20456;-72
2023/10/19 12:24:21;;;;;;;14.00;8.47;;;18.60;1.00;;;;;;5009940;28;20441;-72
2023/10/19 12:26:47;;;;;;;14.20;7.50;;;18.50;1.00;;;;;;5008706;28;20186;-72
2023/10/19 12:29:14;;;;;;;17.03;9.20;;;18.50;1.00;;;;;;5008005;28;20210;-71
2023/10/19 12:31:40;;;;;;;14.20;8.17;;;18.10;1.00;;;;;;5007137;28;20206;-72
2023/10/19 12:34:07;;;;;;;13.23;8.40;;;18.10;1.00;;;;;;5008138;28;20532;-72
2023/10/19 12:36:34;;;;;;;20.80;9.33;;;18.00;1.00;;;;;;5008919;28;20429;-73
2023/10/19 12:39:00;;;;;;;16.03;8.97;;;17.90;1.00;;;;;;5005532;28;21010;-73
2023/10/19 12:41:27;;;;;;;18.60;9.30;;;17.90;1.00;;;;;;5017556;28;20448;-72
2023/10/19 12:43:57;;;;;;;12.43;8.10;;;18.00;1.00;;;;;;5004751;28;20491;-72
2023/10/19 12:46:24;;;;;;;14.10;8.00;;;18.00;1.00;;;;;;5008129;28;20448;-73
2023/10/19 12:48:55;;;;;;;16.63;8.77;;;18.00;1.00;;;;;;5008147;28;20460;-71
2023/10/19 12:51:25;;;;;;;13.33;8.10;;;17.90;1.00;;;;;;5005706;28;20524;-72
2023/10/19 12:53:54;;;;;;;13.53;8.30;;;18.00;1.00;;;;;;5007916;28;20453;-71
2023/10/19 12:56:20;;;;;;;14.43;8.00;;;16.60;1.00;;;;;;5008189;28;20796;-72
2023/10/19 12:58:48;;;;;;;15.67;8.90;;;17.90;1.00;;;;;;5005903;28;20778;-71
2023/10/19 13:01:18;;;;;;;16.23;9.00;;;17.20;1.00;;;;;;5009030;28;20577;-72
2023/10/19 13:03:45;;;;;;;16.63;9.17;;;18.00;1.00;;;;;;5006597;28;20993;-70
2023/10/19 13:06:12;;;;;;;14.13;9.00;;;17.90;1.00;;;;;;5022561;28;21070;-72
2023/10/19 13:08:40;;;;;;;17.20;10.00;;;17.90;1.00;;;;;;5019587;28;20456;-72